Terminal Aerodrome Forecast
Issued by NWS Sterling, VA

Current Version | Previous Version | Graphics & Text | Print | Product List | Glossary On
Versions: 1 2 3 4 5 6 7 8 9 10 11 12 13 14 15 16 17 18 19 20 21
000
FTUS41 KLWX 222040 AAA
TAFDCA
TAF AMD
KDCA 222040Z 2221/2318 17009KT P6SM FEW140 OVC230
     FM230000 VRB04KT P6SM BKN200
     FM230700 19004KT 3SM BR BKN008 BKN050
     FM231400 19008G16KT P6SM SCT050 SCT200=

USA.gov is the U.S. government's official web portal to all federal, state and local government web resources and services.